Time;durP1;ratioP1;P1;durP2;ratioP2;P2;SDS_P1;SDS_P2;PMS_P1;PMS_P2;Temp;Humidity;BMP_temperature;BMP_pressure;BME280_temperature;BME280_humidity;BME280_pressure;Samples;Min_cycle;Max_cycle;Signal;HPM_P1;HPM_P2
2021/12/20 00:01:55;;;;;;;16.67;9.32;;;6.00;99.90;;;;;;5025647;28;20033;-77
2021/12/20 00:04:20;;;;;;;17.02;9.30;;;6.00;99.90;;;;;;5021189;28;20068;-76
2021/12/20 00:06:46;;;;;;;18.73;10.38;;;6.00;99.90;;;;;;5017793;28;20057;-76
2021/12/20 00:09:12;;;;;;;16.95;9.70;;;5.90;99.90;;;;;;5021250;28;20176;-76
2021/12/20 00:11:37;;;;;;;15.77;9.60;;;6.00;99.90;;;;;;5023727;28;20072;-76
2021/12/20 00:14:03;;;;;;;15.10;9.15;;;6.00;99.90;;;;;;5018235;28;20502;-77
2021/12/20 00:16:29;;;;;;;18.73;9.63;;;5.90;99.90;;;;;;5022341;28;21392;-76
2021/12/20 00:18:54;;;;;;;16.73;9.30;;;6.00;99.90;;;;;;5020562;28;20045;-76
2021/12/20 00:21:20;;;;;;;16.27;9.20;;;5.90;99.90;;;;;;5024243;28;20079;-76
2021/12/20 00:23:46;;;;;;;16.52;9.63;;;5.90;99.90;;;;;;5024783;28;20060;-77
2021/12/20 00:26:11;;;;;;;16.48;9.82;;;5.90;99.90;;;;;;5025339;28;20029;-76
2021/12/20 00:28:37;;;;;;;16.33;9.35;;;5.90;99.90;;;;;;5025771;28;20033;-77
2021/12/20 00:31:03;;;;;;;14.18;8.55;;;5.90;99.90;;;;;;5024946;28;20029;-76
2021/12/20 00:33:33;;;;;;;15.27;8.35;;;6.00;99.90;;;;;;5028335;28;20022;-76
2021/12/20 00:36:00;;;;;;;16.80;9.13;;;6.00;99.90;;;;;;5026539;28;20033;-77
2021/12/20 00:41:10;;;;;;;16.73;9.52;;;6.00;99.90;;;;;;5028026;28;20080;-74
2021/12/20 00:43:35;;;;;;;16.33;8.45;;;6.00;99.90;;;;;;5025913;28;20049;-75
2021/12/20 00:46:01;;;;;;;14.55;8.32;;;6.00;99.90;;;;;;5024755;28;20080;-76
2021/12/20 00:48:27;;;;;;;14.32;8.35;;;6.00;99.90;;;;;;5026334;28;20415;-76
2021/12/20 00:50:52;;;;;;;14.88;8.25;;;6.00;99.90;;;;;;5029637;28;20030;-78
2021/12/20 00:53:18;;;;;;;15.82;9.10;;;6.00;99.90;;;;;;5023124;28;20440;-77
2021/12/20 00:55:44;;;;;;;16.70;8.75;;;6.00;99.90;;;;;;5027080;28;20033;-74
2021/12/20 00:58:09;;;;;;;16.88;9.57;;;6.00;99.90;;;;;;5030498;28;20491;-76
2021/12/20 01:00:41;;;;;;;17.38;8.90;;;6.00;99.90;;;;;;5028095;28;20025;-77
2021/12/20 01:03:09;;;;;;;17.98;9.57;;;6.00;99.90;;;;;;5026614;28;20029;-77
2021/12/20 01:05:35;;;;;;;17.10;9.27;;;6.10;99.90;;;;;;5026584;28;20021;-76
2021/12/20 01:08:04;;;;;;;19.23;9.15;;;6.00;99.90;;;;;;5026761;28;20034;-76
2021/12/20 01:10:30;;;;;;;16.15;8.35;;;6.00;99.90;;;;;;5026494;28;20104;-78
2021/12/20 01:12:59;;;;;;;16.92;9.15;;;6.00;99.90;;;;;;5024778;28;20468;-76
2021/12/20 01:15:39;;;;;;;14.95;8.48;;;6.00;99.90;;;;;;5020112;28;20116;-76
2021/12/20 01:18:06;;;;;;;16.42;8.07;;;6.00;99.90;;;;;;5021826;28;20026;-74
2021/12/20 01:20:33;;;;;;;14.82;7.95;;;6.00;99.90;;;;;;5021953;28;20064;-75
2021/12/20 01:22:59;;;;;;;17.52;8.93;;;5.90;99.90;;;;;;5022733;28;20044;-77
2021/12/20 01:25:25;;;;;;;17.05;8.77;;;6.00;99.90;;;;;;5024905;28;20622;-76
2021/12/20 01:27:51;;;;;;;14.95;8.00;;;6.00;99.90;;;;;;5023166;28;20025;-76
2021/12/20 01:30:20;;;;;;;15.70;8.32;;;6.00;99.90;;;;;;5024023;28;20032;-76
2021/12/20 01:32:46;;;;;;;13.75;7.05;;;6.00;99.90;;;;;;5020580;28;20030;-75
2021/12/20 01:35:14;;;;;;;13.85;7.00;;;6.20;99.90;;;;;;5028149;28;20083;-76
2021/12/20 01:37:40;;;;;;;16.58;7.60;;;6.00;99.90;;;;;;5045694;28;20540;-75
2021/12/20 01:40:09;;;;;;;17.10;7.85;;;6.00;99.90;;;;;;5009082;28;20042;-76
2021/12/20 01:42:36;;;;;;;16.15;7.15;;;6.00;99.90;;;;;;5024688;28;20470;-76
2021/12/20 01:45:04;;;;;;;14.18;7.25;;;6.10;99.90;;;;;;5028061;28;20032;-77
2021/12/20 01:47:34;;;;;;;13.27;6.85;;;6.10;99.90;;;;;;5027426;28;20479;-77
2021/12/20 01:50:06;;;;;;;14.93;6.72;;;6.10;99.90;;;;;;5025189;28;20034;-76
2021/12/20 01:52:39;;;;;;;14.45;7.13;;;6.10;99.90;;;;;;5025963;28;20033;-77
2021/12/20 01:55:07;;;;;;;13.30;7.15;;;6.10;99.90;;;;;;5028810;28;20043;-75
2021/12/20 01:57:32;;;;;;;12.98;6.47;;;6.10;99.90;;;;;;5027180;28;20029;-76
2021/12/20 01:59:58;;;;;;;12.13;5.97;;;6.10;99.90;;;;;;5024930;28;20026;-77
2021/12/20 02:02:24;;;;;;;12.82;6.78;;;6.10;99.90;;;;;;5023932;28;20026;-76
2021/12/20 02:04:51;;;;;;;13.63;7.13;;;6.10;99.90;;;;;;5024726;28;20160;-77
2021/12/20 02:07:35;;;;;;;12.70;6.70;;;6.10;99.90;;;;;;5025585;28;20040;-78
2021/12/20 02:10:01;;;;;;;11.25;6.07;;;6.10;99.90;;;;;;5025974;28;20491;-77
2021/12/20 02:12:27;;;;;;;12.20;6.28;;;6.10;99.90;;;;;;5023374;28;20044;-77
2021/12/20 02:14:52;;;;;;;13.00;6.75;;;6.10;99.90;;;;;;5020070;28;20029;-77
2021/12/20 02:17:18;;;;;;;14.65;7.38;;;6.10;99.90;;;;;;5026498;28;20416;-77
2021/12/20 02:19:43;;;;;;;13.63;6.57;;;6.10;99.90;;;;;;5024090;28;22424;-77
2021/12/20 02:22:09;;;;;;;12.73;6.80;;;6.10;99.90;;;;;;5031037;28;20087;-77
2021/12/20 02:24:35;;;;;;;12.90;7.18;;;6.10;99.90;;;;;;5029638;28;20021;-78
2021/12/20 02:27:00;;;;;;;13.52;7.28;;;6.10;99.90;;;;;;5028693;28;20025;-78
2021/12/20 02:29:42;;;;;;;13.30;6.82;;;6.10;99.90;;;;;;5030760;28;20063;-74
2021/12/20 02:37:36;;;;;;;9.07;4.82;;;6.10;99.90;;;;;;5023553;28;20172;-76
2021/12/20 02:40:03;;;;;;;9.80;5.22;;;6.40;99.90;;;;;;5025686;28;20120;-75
2021/12/20 02:42:35;;;;;;;9.20;5.00;;;6.10;99.90;;;;;;5037782;28;20101;-77
2021/12/20 02:45:10;;;;;;;10.93;4.97;;;6.00;99.90;;;;;;5027019;28;20033;-79
2021/12/20 02:47:38;;;;;;;9.30;5.38;;;6.10;99.90;;;;;;5024484;28;20438;-78
2021/12/20 02:50:04;;;;;;;13.00;6.65;;;6.10;99.90;;;;;;5025758;28;20030;-75
2021/12/20 02:52:30;;;;;;;11.65;5.82;;;6.10;99.90;;;;;;5017088;28;20022;-76
2021/12/20 02:54:56;;;;;;;12.05;6.68;;;6.10;99.90;;;;;;5010524;28;20032;-75
2021/12/20 02:57:22;;;;;;;16.13;6.70;;;6.10;99.90;;;;;;5027134;28;20033;-79
2021/12/20 02:59:47;;;;;;;12.27;6.78;;;6.10;99.90;;;;;;5030340;28;20088;-76
2021/12/20 03:02:13;;;;;;;12.20;6.68;;;6.10;99.90;;;;;;5027474;28;20121;-76
2021/12/20 03:04:40;;;;;;;11.45;6.05;;;6.10;99.90;;;;;;5025634;28;20030;-77
2021/12/20 03:07:09;;;;;;;11.23;6.03;;;6.10;99.90;;;;;;5029750;28;20403;-76
2021/12/20 03:09:40;;;;;;;13.10;6.72;;;6.10;99.90;;;;;;5025253;28;20029;-77
2021/12/20 03:12:08;;;;;;;11.65;6.78;;;6.10;99.90;;;;;;5026918;28;20061;-76
2021/12/20 03:14:39;;;;;;;9.20;5.28;;;6.10;99.90;;;;;;5019019;28;20563;-77
2021/12/20 03:17:06;;;;;;;10.57;5.60;;;6.10;99.90;;;;;;5026288;28;20026;-75
2021/12/20 03:19:32;;;;;;;12.55;6.53;;;6.10;99.90;;;;;;5026825;28;20083;-78
2021/12/20 03:21:58;;;;;;;14.27;7.30;;;6.10;99.90;;;;;;5019532;28;20029;-77
2021/12/20 03:24:24;;;;;;;10.90;5.82;;;6.10;99.90;;;;;;5019603;28;20052;-76
2021/12/20 03:26:50;;;;;;;12.50;6.00;;;6.10;99.90;;;;;;5022428;28;20136;-75
2021/12/20 03:29:16;;;;;;;12.00;6.28;;;6.10;99.90;;;;;;5028826;28;20160;-75
2021/12/20 03:31:41;;;;;;;12.75;7.05;;;6.10;99.90;;;;;;5025847;28;20072;-76
2021/12/20 03:34:08;;;;;;;11.07;5.88;;;6.10;99.90;;;;;;5022420;28;20025;-75
2021/12/20 03:36:34;;;;;;;10.70;6.03;;;6.10;99.90;;;;;;5024873;28;21003;-76
2021/12/20 03:39:00;;;;;;;13.80;6.90;;;6.10;99.90;;;;;;5024173;28;20120;-75
2021/12/20 03:41:26;;;;;;;10.93;6.15;;;6.10;99.90;;;;;;5023175;28;20555;-78
2021/12/20 03:43:51;;;;;;;12.77;7.45;;;6.10;99.90;;;;;;5026452;28;20098;-76
2021/12/20 03:46:17;;;;;;;14.35;8.05;;;6.10;99.90;;;;;;5022335;28;20116;-75
2021/12/20 03:48:43;;;;;;;13.88;7.07;;;6.00;99.90;;;;;;5020470;28;20476;-76
2021/12/20 03:51:09;;;;;;;13.10;7.53;;;6.00;99.90;;;;;;5023757;28;20029;-77
2021/12/20 03:53:35;;;;;;;12.20;6.32;;;6.00;99.90;;;;;;5022805;28;20025;-77
2021/12/20 03:56:03;;;;;;;13.95;7.68;;;6.00;99.90;;;;;;5025270;28;20060;-77
2021/12/20 03:58:29;;;;;;;13.65;7.10;;;6.00;99.90;;;;;;5026340;28;20040;-76
2021/12/20 04:00:56;;;;;;;12.75;6.05;;;6.00;99.90;;;;;;5016178;28;20109;-77
2021/12/20 04:03:22;;;;;;;11.35;6.43;;;5.90;99.90;;;;;;5022713;28;20033;-77
2021/12/20 04:05:47;;;;;;;11.18;6.13;;;5.90;99.90;;;;;;5022301;28;20099;-79
2021/12/20 04:08:13;;;;;;;13.98;7.00;;;5.90;99.90;;;;;;5024741;28;20056;-76
2021/12/20 04:10:39;;;;;;;11.45;6.13;;;5.90;99.90;;;;;;5029239;28;20406;-74
2021/12/20 04:13:04;;;;;;;11.70;6.50;;;5.90;99.90;;;;;;5029092;28;20113;-76
2021/12/20 04:15:30;;;;;;;12.60;6.68;;;5.90;99.90;;;;;;5028904;28;20052;-76
2021/12/20 04:17:56;;;;;;;13.00;6.18;;;6.00;99.90;;;;;;5032241;28;20033;-76
2021/12/20 04:20:21;;;;;;;11.57;6.05;;;6.00;99.90;;;;;;5030212;28;20029;-76
2021/12/20 04:22:47;;;;;;;10.50;5.43;;;6.20;99.90;;;;;;5040912;28;20050;-76
2021/12/20 04:25:13;;;;;;;11.40;5.60;;;6.00;99.90;;;;;;5022902;28;20034;-76
2021/12/20 04:27:39;;;;;;;10.35;5.70;;;6.00;99.90;;;;;;5025711;28;20034;-76
2021/12/20 04:30:10;;;;;;;12.63;6.45;;;6.00;99.90;;;;;;5029588;28;20040;-77
2021/12/20 04:32:36;;;;;;;;;;;6.00;99.90;;;;;;5026767;28;20029;-75
2021/12/20 04:35:02;;;;;;;12.48;6.10;;;6.00;99.90;;;;;;5028029;28;19963;-75
2021/12/20 04:37:28;;;;;;;12.43;6.43;;;6.00;99.90;;;;;;5029641;28;20037;-75
2021/12/20 04:39:53;;;;;;;12.88;5.95;;;6.10;99.90;;;;;;5029468;28;20407;-75
2021/12/20 04:42:19;;;;;;;12.32;6.45;;;6.60;99.90;;;;;;5031855;28;20025;-75
2021/12/20 04:44:45;;;;;;;10.85;5.78;;;6.00;99.90;;;;;;5031763;28;20059;-77
2021/12/20 04:47:10;;;;;;;12.00;6.20;;;6.10;99.90;;;;;;5030455;28;20030;-75
2021/12/20 04:49:36;;;;;;;10.95;5.75;;;6.10;99.90;;;;;;5027101;28;20026;-77
2021/12/20 04:52:02;;;;;;;11.23;5.45;;;6.10;99.90;;;;;;5030003;28;20030;-75
2021/12/20 04:54:28;;;;;;;11.05;5.80;;;6.10;99.90;;;;;;5033332;28;20029;-75
2021/12/20 04:56:53;;;;;;;12.57;6.20;;;6.20;99.90;;;;;;5021775;28;20022;-76
2021/12/20 04:59:19;;;;;;;10.10;5.38;;;6.10;99.90;;;;;;5029745;28;20033;-76
2021/12/20 05:01:45;;;;;;;9.55;5.30;;;6.10;99.90;;;;;;5032905;28;20029;-75
2021/12/20 05:04:10;;;;;;;9.95;5.82;;;6.10;99.90;;;;;;5019771;28;20211;-75
2021/12/20 05:06:36;;;;;;;8.52;4.85;;;6.10;99.90;;;;;;5023490;28;20029;-77
2021/12/20 05:09:04;;;;;;;10.27;5.63;;;6.10;99.90;;;;;;5022294;28;20036;-80
2021/12/20 05:11:33;;;;;;;11.45;6.57;;;6.10;99.90;;;;;;5032927;28;20101;-77
2021/12/20 05:13:59;;;;;;;12.00;6.15;;;6.10;99.90;;;;;;5029166;28;20036;-76
2021/12/20 05:16:25;;;;;;;10.70;5.70;;;6.10;99.90;;;;;;5018991;28;20087;-76
2021/12/20 05:18:51;;;;;;;11.23;5.20;;;6.10;99.90;;;;;;5022314;28;20029;-77
2021/12/20 05:21:16;;;;;;;10.05;5.22;;;6.20;99.90;;;;;;5024181;28;20026;-79
2021/12/20 05:23:42;;;;;;;10.40;5.28;;;6.10;99.90;;;;;;5023671;28;20306;-77
2021/12/20 05:26:07;;;;;;;10.20;4.93;;;6.10;99.90;;;;;;5025343;28;20395;-78
2021/12/20 05:28:33;;;;;;;10.13;4.88;;;6.10;99.90;;;;;;5024254;28;20585;-79
2021/12/20 05:30:59;;;;;;;10.95;5.50;;;6.10;99.90;;;;;;5025267;28;20025;-78
2021/12/20 05:33:24;;;;;;;12.63;6.07;;;6.10;99.90;;;;;;5027514;28;20033;-81
2021/12/20 05:35:50;;;;;;;9.82;5.88;;;6.40;99.90;;;;;;5028618;28;20076;-78
2021/12/20 05:38:16;;;;;;;10.40;5.43;;;6.10;99.90;;;;;;5028325;28;20063;-81
2021/12/20 05:40:42;;;;;;;12.50;5.88;;;6.10;99.90;;;;;;5029258;28;20093;-79
2021/12/20 05:43:08;;;;;;;11.40;6.05;;;6.10;99.90;;;;;;5036761;28;20032;-79
2021/12/20 05:45:34;;;;;;;10.52;5.55;;;6.20;99.90;;;;;;5026993;28;20025;-79
2021/12/20 05:48:00;;;;;;;12.20;6.50;;;6.10;99.90;;;;;;5026689;28;20123;-80
2021/12/20 05:50:26;;;;;;;10.98;5.78;;;6.10;99.90;;;;;;5028913;28;20076;-80
2021/12/20 05:52:52;;;;;;;9.95;5.70;;;6.10;99.90;;;;;;5027736;28;20025;-79
2021/12/20 05:55:19;;;;;;;10.38;5.47;;;6.10;99.90;;;;;;5043396;28;20021;-78
2021/12/20 05:57:45;;;;;;;10.70;6.15;;;6.10;99.90;;;;;;5025633;28;20419;-79
2021/12/20 06:00:14;;;;;;;11.05;6.22;;;6.10;99.90;;;;;;5029281;28;20029;-79
2021/12/20 06:02:41;;;;;;;10.70;5.68;;;6.10;99.90;;;;;;5036802;28;20056;-80
2021/12/20 06:05:08;;;;;;;11.98;6.40;;;6.10;99.90;;;;;;5032472;28;20055;-79
2021/12/20 06:07:38;;;;;;;13.88;6.22;;;6.10;99.90;;;;;;5025614;28;20128;-77
2021/12/20 06:10:04;;;;;;;11.75;6.35;;;6.10;99.90;;;;;;5024895;28;20026;-77
2021/12/20 06:12:30;;;;;;;9.32;5.22;;;6.10;99.90;;;;;;5024668;28;20065;-76
2021/12/20 06:14:55;;;;;;;10.30;5.60;;;6.00;99.90;;;;;;5022931;28;20099;-78
2021/12/20 06:17:22;;;;;;;10.90;5.60;;;6.00;99.90;;;;;;5023745;28;20522;-80
2021/12/20 06:19:48;;;;;;;9.68;5.38;;;6.00;99.90;;;;;;5023531;28;20534;-79
2021/12/20 06:22:13;;;;;;;10.18;5.28;;;6.00;99.90;;;;;;5025219;28;20025;-78
2021/12/20 06:24:39;;;;;;;12.32;5.38;;;6.00;99.90;;;;;;5038704;28;20080;-81
2021/12/20 06:27:05;;;;;;;9.75;5.65;;;6.00;99.90;;;;;;5023576;28;20029;-81
2021/12/20 06:29:31;;;;;;;10.13;5.30;;;6.00;99.90;;;;;;5023026;28;20064;-80
2021/12/20 06:31:56;;;;;;;9.32;4.85;;;6.00;99.90;;;;;;5021898;28;20128;-80
2021/12/20 06:34:22;;;;;;;10.38;5.30;;;5.90;99.90;;;;;;5032903;28;20029;-79
2021/12/20 06:36:48;;;;;;;10.57;5.00;;;5.90;99.90;;;;;;5026709;28;20052;-77
2021/12/20 06:39:14;;;;;;;9.50;5.60;;;6.00;99.90;;;;;;5026589;28;20083;-77
2021/12/20 06:41:39;;;;;;;10.68;5.55;;;6.00;99.90;;;;;;5019957;28;20021;-78
2021/12/20 06:44:05;;;;;;;10.27;5.47;;;6.00;99.90;;;;;;5021065;28;20045;-80
2021/12/20 06:46:34;;;;;;;11.75;5.97;;;6.00;99.90;;;;;;5021633;28;20117;-77
2021/12/20 06:49:00;;;;;;;12.10;6.25;;;;;;;;;;5017504;28;20091;-79
2021/12/20 06:51:26;;;;;;;12.07;5.65;;;6.10;99.90;;;;;;5015041;28;20087;-78
2021/12/20 06:53:54;;;;;;;11.82;5.90;;;6.10;99.90;;;;;;5026391;28;20053;-80
2021/12/20 06:56:20;;;;;;;10.88;5.60;;;6.10;99.90;;;;;;5036490;28;20479;-80
2021/12/20 06:58:45;;;;;;;13.52;6.18;;;6.10;99.90;;;;;;5031046;28;20029;-78
2021/12/20 07:01:11;;;;;;;9.52;5.57;;;6.10;99.90;;;;;;5025550;28;20053;-79
2021/12/20 07:03:37;;;;;;;12.68;6.28;;;6.10;99.90;;;;;;5031803;28;20037;-78
2021/12/20 07:06:02;;;;;;;13.57;6.40;;;6.10;99.90;;;;;;5022936;28;20049;-81
2021/12/20 07:08:28;;;;;;;12.57;6.22;;;6.20;99.90;;;;;;5033913;28;20155;-78
2021/12/20 07:10:53;;;;;;;17.65;7.18;;;6.10;99.90;;;;;;5027162;28;20113;-78
2021/12/20 07:13:22;;;;;;;12.82;6.95;;;6.10;99.90;;;;;;5022613;28;20032;-81
2021/12/20 07:15:48;;;;;;;13.18;6.47;;;6.00;99.90;;;;;;5028387;28;20030;-82
2021/12/20 07:18:13;;;;;;;15.32;6.70;;;7.00;99.90;;;;;;5026283;28;20033;-80
2021/12/20 07:20:39;;;;;;;12.23;6.38;;;6.00;99.90;;;;;;5026883;28;20033;-78
2021/12/20 07:23:05;;;;;;;14.52;6.18;;;6.10;99.90;;;;;;5029564;28;20056;-80
2021/12/20 07:25:31;;;;;;;15.18;6.72;;;6.00;99.90;;;;;;5028673;28;20109;-79
2021/12/20 07:27:56;;;;;;;13.07;6.53;;;6.10;99.90;;;;;;5023095;28;20068;-79
2021/12/20 07:30:22;;;;;;;13.27;6.38;;;6.10;99.90;;;;;;5024735;28;20093;-79
2021/12/20 07:32:48;;;;;;;12.43;6.85;;;6.10;99.90;;;;;;5027974;28;20030;-80
2021/12/20 07:35:14;;;;;;;15.13;6.78;;;6.10;99.90;;;;;;5024455;28;20029;-78
2021/12/20 07:37:40;;;;;;;16.45;6.45;;;6.00;99.90;;;;;;5028044;28;20395;-78
2021/12/20 07:40:07;;;;;;;12.02;6.75;;;6.10;99.90;;;;;;5027668;28;20617;-78
2021/12/20 07:42:33;;;;;;;13.80;7.22;;;6.20;99.90;;;;;;5031138;28;20022;-78
2021/12/20 07:44:59;;;;;;;11.60;6.30;;;6.20;99.90;;;;;;5029979;28;20048;-78
2021/12/20 07:47:25;;;;;;;18.88;7.78;;;;;;;;;;5030220;28;20030;-80
2021/12/20 07:49:51;;;;;;;12.50;6.25;;;;;;;;;;5032578;28;20056;-78
2021/12/20 07:52:17;;;;;;;18.73;7.13;;;;;;;;;;5032649;28;20037;-77
2021/12/20 07:54:43;;;;;;;17.23;7.57;;;6.20;99.90;;;;;;5030124;28;20061;-77
2021/12/20 07:57:08;;;;;;;15.13;6.97;;;6.20;99.90;;;;;;5031378;28;20041;-80
2021/12/20 07:59:34;;;;;;;14.77;6.72;;;6.20;99.90;;;;;;5034079;28;20404;-80
2021/12/20 08:02:00;;;;;;;15.43;7.35;;;;;;;;;;5035068;28;20372;-78
2021/12/20 08:04:25;;;;;;;11.70;6.30;;;6.20;99.90;;;;;;5027421;28;20253;-79
2021/12/20 08:06:51;;;;;;;14.90;7.57;;;6.20;99.90;;;;;;5030440;28;20033;-79
2021/12/20 08:09:17;;;;;;;16.55;7.03;;;6.20;99.90;;;;;;5029988;28;20030;-79
2021/12/20 08:11:43;;;;;;;15.45;7.75;;;7.90;99.90;;;;;;5031590;28;20033;-78
2021/12/20 08:14:09;;;;;;;13.18;6.22;;;7.00;99.90;;;;;;5029523;28;20026;-79
2021/12/20 08:16:35;;;;;;;13.77;6.65;;;6.20;99.90;;;;;;5031454;28;20068;-80
2021/12/20 08:19:00;;;;;;;13.35;6.35;;;6.20;99.90;;;;;;5028972;28;20478;-80
2021/12/20 08:21:27;;;;;;;11.95;6.97;;;6.20;99.90;;;;;;5028403;28;20033;-78
2021/12/20 08:23:52;;;;;;;14.50;7.32;;;6.20;99.90;;;;;;5026007;28;20037;-80
2021/12/20 08:26:18;;;;;;;12.55;7.07;;;6.30;99.90;;;;;;5024928;28;20155;-80
2021/12/20 08:28:44;;;;;;;12.82;7.68;;;6.30;99.90;;;;;;5025896;28;20055;-81
2021/12/20 08:31:10;;;;;;;16.95;7.10;;;6.20;99.90;;;;;;5024972;28;20159;-80
2021/12/20 08:33:37;;;;;;;16.77;6.90;;;4.20;99.90;;;;;;5024934;28;20032;-82
2021/12/20 08:36:06;;;;;;;11.25;6.32;;;6.40;99.90;;;;;;5023865;28;23839;-81
2021/12/20 08:38:33;;;;;;;11.23;6.05;;;6.40;99.90;;;;;;5047619;28;20026;-80
2021/12/20 08:40:59;;;;;;;13.05;6.30;;;6.40;99.90;;;;;;5028959;28;20025;-82
2021/12/20 08:43:26;;;;;;;11.70;5.60;;;6.40;99.90;;;;;;5033006;28;20029;-82
2021/12/20 08:45:53;;;;;;;14.40;6.75;;;6.40;99.90;;;;;;5032322;28;20022;-80
2021/12/20 08:48:19;;;;;;;13.05;6.35;;;;;;;;;;5027649;28;20163;-80
2021/12/20 08:50:45;;;;;;;13.00;5.70;;;;;;;;;;5029905;28;20080;-83
2021/12/20 08:53:11;;;;;;;14.02;5.78;;;;;;;;;;5027687;28;20029;-80
2021/12/20 08:55:38;;;;;;;12.35;5.40;;;;;;;;;;5011712;28;20045;-80
2021/12/20 08:58:05;;;;;;;10.82;5.65;;;6.70;99.90;;;;;;5023958;28;20025;-79
2021/12/20 09:00:33;;;;;;;11.77;5.78;;;6.60;99.90;;;;;;5027844;28;20113;-80
2021/12/20 09:03:01;;;;;;;12.32;5.72;;;6.60;99.90;;;;;;5027565;28;20040;-84
2021/12/20 09:05:28;;;;;;;11.18;6.05;;;6.70;99.90;;;;;;5023474;28;20055;-80
2021/12/20 09:07:57;;;;;;;11.50;5.55;;;6.60;99.90;;;;;;5028938;28;20062;-84
2021/12/20 09:10:22;;;;;;;10.50;6.18;;;6.70;99.90;;;;;;5027474;28;20104;-81
2021/12/20 09:12:51;;;;;;;12.15;5.55;;;8.00;99.90;;;;;;5022293;28;20070;-81
2021/12/20 09:15:17;;;;;;;12.82;5.57;;;6.70;99.90;;;;;;5025283;28;20022;-80
2021/12/20 09:17:49;;;;;;;10.73;5.60;;;6.70;99.90;;;;;;5023816;28;20033;-81
2021/12/20 09:20:17;;;;;;;12.57;5.47;;;6.80;99.90;;;;;;5024669;28;20025;-82
2021/12/20 09:22:51;;;;;;;9.90;4.85;;;;;;;;;;5026296;28;20025;-82
2021/12/20 09:25:22;;;;;;;9.50;4.70;;;6.80;99.90;;;;;;5022919;28;20024;-82
2021/12/20 09:27:49;;;;;;;10.60;5.25;;;6.80;99.90;;;;;;5024469;28;20488;-82
2021/12/20 09:30:16;;;;;;;10.95;5.35;;;7.10;99.90;;;;;;5033291;28;20029;-79
2021/12/20 09:32:41;;;;;;;8.82;4.68;;;7.10;99.90;;;;;;5031518;28;20025;-79
2021/12/20 09:35:08;;;;;;;9.98;3.95;;;7.30;99.90;;;;;;5036792;28;20032;-81
2021/12/20 09:37:34;;;;;;;9.02;4.43;;;;;;;;;;5024432;28;20029;-80
2021/12/20 09:40:00;;;;;;;9.23;4.28;;;7.20;99.90;;;;;;5026185;28;20029;-82
2021/12/20 09:42:26;;;;;;;9.38;4.18;;;7.30;99.90;;;;;;5028151;28;20059;-80
2021/12/20 09:44:56;;;;;;;18.02;5.28;;;;;;;;;;5026519;28;20025;-79
2021/12/20 09:47:21;;;;;;;10.95;4.28;;;7.40;99.90;;;;;;5025514;28;20040;-80
2021/12/20 09:49:47;;;;;;;9.25;4.65;;;7.30;99.90;;;;;;5024900;28;20034;-84
2021/12/20 09:52:12;;;;;;;9.32;4.30;;;7.40;99.90;;;;;;5026071;28;20030;-81
2021/12/20 09:54:39;;;;;;;11.60;4.28;;;7.50;99.90;;;;;;5029751;28;20033;-80
2021/12/20 09:57:08;;;;;;;11.85;4.60;;;7.40;99.90;;;;;;5028968;28;20047;-82
2021/12/20 09:59:36;;;;;;;9.60;3.67;;;7.50;99.90;;;;;;5028271;28;20033;-82
2021/12/20 10:02:07;;;;;;;10.00;3.70;;;7.50;99.90;;;;;;5024679;28;20499;-81
2021/12/20 10:04:34;;;;;;;10.30;4.20;;;7.40;99.90;;;;;;5028782;28;20537;-80
2021/12/20 10:07:01;;;;;;;12.30;4.22;;;7.40;99.90;;;;;;5026647;28;20080;-82
2021/12/20 10:09:32;;;;;;;10.60;4.03;;;;;;;;;;5031196;28;20021;-85
2021/12/20 10:12:14;;;;;;;;;;;7.50;99.90;;;;;;5024854;28;20276;-80
2021/12/20 10:14:59;;;;;;;9.93;3.55;;;7.50;99.90;;;;;;5025743;28;20048;-80
2021/12/20 10:17:28;;;;;;;9.88;4.00;;;7.50;99.90;;;;;;5043473;28;20029;-81
2021/12/20 10:19:54;;;;;;;7.15;3.30;;;;;;;;;;5030081;28;20034;-84
2021/12/20 10:22:29;;;;;;;11.32;3.28;;;7.50;99.90;;;;;;5026230;28;20178;-81
2021/12/20 10:24:58;;;;;;;9.10;3.10;;;7.50;99.90;;;;;;5021122;28;20034;-79
2021/12/20 10:27:33;;;;;;;10.40;3.63;;;7.60;99.90;;;;;;5039229;28;20091;-82
2021/12/20 10:30:01;;;;;;;9.73;3.67;;;7.60;99.90;;;;;;5023359;28;20037;-83
2021/12/20 10:32:44;;;;;;;9.38;3.22;;;7.50;99.90;;;;;;5026869;28;20025;-80
2021/12/20 10:35:25;;;;;;;8.27;3.00;;;7.60;99.90;;;;;;5016960;28;20025;-80
2021/12/20 10:37:52;;;;;;;;;;;9.80;99.90;;;;;;5018520;28;20026;-81
2021/12/20 10:40:18;;;;;;;6.80;2.40;;;7.70;99.90;;;;;;5025350;28;19916;-80
2021/12/20 10:42:44;;;;;;;11.45;2.95;;;7.70;99.90;;;;;;5029471;28;20487;-79
2021/12/20 10:45:13;;;;;;;11.02;3.08;;;7.70;99.90;;;;;;5026253;28;20033;-79
2021/12/20 10:47:40;;;;;;;6.78;2.80;;;7.70;99.90;;;;;;5028530;28;20029;-81
2021/12/20 10:50:28;;;;;;;8.40;2.75;;;7.70;99.90;;;;;;5027318;28;20045;-83
2021/12/20 10:53:12;;;;;;;8.10;3.05;;;7.70;99.90;;;;;;5027857;28;20076;-86
2021/12/20 10:55:48;;;;;;;8.05;3.50;;;7.70;99.90;;;;;;5024904;28;20025;-81
2021/12/20 10:58:23;;;;;;;8.38;2.92;;;7.70;99.90;;;;;;5024741;28;20884;-85
2021/12/20 11:03:56;;;;;;;8.65;3.28;;;7.70;99.90;;;;;;5030015;28;20398;-79
2021/12/20 11:09:06;;;;;;;7.20;3.50;;;7.70;99.90;;;;;;5036484;28;20103;-82
2021/12/20 11:11:37;;;;;;;12.02;3.10;;;9.80;99.90;;;;;;5024080;28;20029;-80
2021/12/20 11:14:04;;;;;;;11.63;3.13;;;7.70;99.90;;;;;;5027957;28;20033;-84
2021/12/20 11:16:38;;;;;;;9.20;3.92;;;7.70;99.90;;;;;;5026944;28;20022;-82
2021/12/20 11:19:07;;;;;;;10.70;3.28;;;;;;;;;;5024786;28;20037;-85
2021/12/20 11:21:37;;;;;;;10.77;2.88;;;7.90;99.90;;;;;;5027143;28;20060;-79
2021/12/20 11:24:10;;;;;;;10.68;2.67;;;7.90;99.90;;;;;;5020466;28;20723;-86
2021/12/20 11:26:36;;;;;;;7.05;3.00;;;7.90;99.90;;;;;;5017644;28;20112;-80
2021/12/20 11:29:02;;;;;;;6.55;3.05;;;8.00;99.90;;;;;;5026079;28;20491;-80
2021/12/20 11:31:28;;;;;;;8.77;3.30;;;8.00;99.90;;;;;;5025796;28;20071;-82
2021/12/20 11:33:54;;;;;;;8.38;2.88;;;8.10;99.90;;;;;;5024464;28;20080;-81
2021/12/20 11:36:20;;;;;;;8.73;3.17;;;8.20;99.90;;;;;;5025746;28;20122;-80
2021/12/20 11:38:45;;;;;;;6.97;2.60;;;8.70;99.90;;;;;;5023772;28;20088;-82
2021/12/20 11:41:12;;;;;;;7.25;2.47;;;;;;;;;;5025206;28;20031;-85
2021/12/20 11:43:38;;;;;;;8.02;2.90;;;8.20;99.90;;;;;;5043057;28;20117;-82
2021/12/20 11:46:06;;;;;;;10.13;2.65;;;8.20;99.90;;;;;;5026806;28;20388;-83
2021/12/20 11:48:33;;;;;;;8.13;2.90;;;8.20;99.90;;;;;;5040642;28;20064;-79
2021/12/20 11:50:59;;;;;;;7.85;2.70;;;8.20;99.90;;;;;;5022641;28;20033;-84
2021/12/20 11:53:35;;;;;;;11.88;3.08;;;8.20;99.90;;;;;;5025684;28;20049;-80
2021/12/20 11:56:01;;;;;;;11.02;2.70;;;8.20;99.90;;;;;;5024984;28;20449;-81
2021/12/20 11:58:30;;;;;;;8.38;2.90;;;8.10;99.90;;;;;;5030250;28;20053;-82
2021/12/20 12:01:12;;;;;;;10.52;2.60;;;8.10;99.90;;;;;;5028100;28;20120;-81
2021/12/20 12:03:39;;;;;;;10.38;2.70;;;8.10;99.90;;;;;;5042518;28;20141;-82
2021/12/20 12:06:12;;;;;;;10.18;2.70;;;9.80;99.90;;;;;;5025303;28;20512;-80
2021/12/20 12:08:42;;;;;;;10.30;2.63;;;8.10;99.90;;;;;;5024926;28;20068;-80
2021/12/20 12:11:08;;;;;;;8.52;2.95;;;8.00;99.90;;;;;;5027298;28;20029;-81
2021/12/20 12:13:44;;;;;;;7.50;2.70;;;8.10;99.90;;;;;;5023404;28;20072;-82
2021/12/20 12:16:26;;;;;;;9.60;2.90;;;8.10;99.90;;;;;;5038999;28;20041;-82
2021/12/20 12:18:54;;;;;;;10.23;2.55;;;8.10;99.90;;;;;;5026238;28;20025;-84
2021/12/20 12:21:32;;;;;;;12.52;2.75;;;8.80;99.90;;;;;;5025319;28;20041;-83
2021/12/20 12:24:01;;;;;;;10.13;2.92;;;8.10;99.90;;;;;;5025192;28;20529;-84
2021/12/20 12:26:32;;;;;;;11.10;2.88;;;7.90;99.90;;;;;;5018907;28;20036;-82
2021/12/20 12:28:59;;;;;;;10.20;2.35;;;8.00;99.90;;;;;;5026197;28;20037;-84
2021/12/20 12:31:27;;;;;;;11.32;2.63;;;7.80;99.90;;;;;;5031442;28;20025;-81
2021/12/20 12:34:11;;;;;;;12.05;2.47;;;7.80;99.90;;;;;;5045949;28;20494;-79
2021/12/20 12:36:41;;;;;;;9.52;2.22;;;7.90;99.90;;;;;;5028589;28;20040;-80
2021/12/20 12:39:11;;;;;;;9.65;2.30;;;7.90;99.90;;;;;;5026590;28;20033;-84
2021/12/20 12:41:46;;;;;;;5.70;1.98;;;7.90;99.90;;;;;;5030135;28;20037;-83
2021/12/20 12:44:15;;;;;;;8.50;2.10;;;;;;;;;;5030157;28;20121;-83
2021/12/20 12:46:41;;;;;;;8.43;1.92;;;8.00;99.90;;;;;;5027998;28;20948;-84
2021/12/20 12:49:23;;;;;;;5.25;1.92;;;;;;;;;;5028832;28;20044;-85
2021/12/20 12:51:50;;;;;;;7.18;2.03;;;8.00;99.90;;;;;;5041191;28;20126;-84
2021/12/20 12:54:53;;;;;;;9.75;2.17;;;7.90;99.90;;;;;;5024694;28;20026;-83
2021/12/20 12:57:18;;;;;;;6.72;2.03;;;7.90;99.90;;;;;;5032845;28;20109;-83
2021/12/20 12:59:50;;;;;;;6.28;1.63;;;7.90;99.90;;;;;;5031894;28;20120;-83
2021/12/20 13:02:22;;;;;;;8.38;1.85;;;7.90;99.30;;;;;;5023375;28;20053;-83
2021/12/20 13:04:49;;;;;;;5.88;1.70;;;8.00;99.90;;;;;;5028028;28;20076;-81
2021/12/20 13:07:22;;;;;;;4.68;1.67;;;8.10;97.70;;;;;;5025883;28;20068;-81
2021/12/20 13:09:50;;;;;;;5.93;1.75;;;9.10;97.90;;;;;;5033275;28;20041;-85
2021/12/20 13:12:26;;;;;;;5.55;1.50;;;9.10;96.90;;;;;;5031845;28;20533;-80